sensor_id;sensor_type;location;lat;lon;timestamp;pressure;altitude;pressure_sealevel;temperature;humidity
72612;BME280;60655;52.182;4.474;2024-01-07T00:00:23;101835.38;;;2.03;98.65
72612;BME280;60655;52.182;4.474;2024-01-07T00:02:24;101831.41;;;1.99;98.61
72612;BME280;60655;52.182;4.474;2024-01-07T00:04:25;101833.72;;;2.02;98.47
72612;BME280;60655;52.182;4.474;2024-01-07T00:06:26;101835.13;;;1.97;98.70
72612;BME280;60655;52.182;4.474;2024-01-07T00:08:27;101828.63;;;2.01;99.24
72612;BME280;60655;52.182;4.474;2024-01-07T00:10:28;101840.31;;;1.87;98.94
72612;BME280;60655;52.182;4.474;2024-01-07T00:12:29;101840.75;;;1.92;98.95
72612;BME280;60655;52.182;4.474;2024-01-07T00:14:30;101838.97;;;1.93;98.83
72612;BME280;60655;52.182;4.474;2024-01-07T00:16:31;101838.94;;;2.02;100.00
72612;BME280;60655;52.182;4.474;2024-01-07T00:18:32;101841.19;;;1.97;98.84
72612;BME280;60655;52.182;4.474;2024-01-07T00:20:32;101851.53;;;1.99;98.88
72612;BME280;60655;52.182;4.474;2024-01-07T00:22:33;101852.75;;;2.04;98.58
72612;BME280;60655;52.182;4.474;2024-01-07T00:24:34;101849.88;;;1.98;98.20
72612;BME280;60655;52.182;4.474;2024-01-07T00:26:35;101847.81;;;2.11;98.99
72612;BME280;60655;52.182;4.474;2024-01-07T00:28:36;101845.31;;;2.10;98.69
72612;BME280;60655;52.182;4.474;2024-01-07T00:30:37;101848.34;;;2.05;96.77
72612;BME280;60655;52.182;4.474;2024-01-07T00:32:38;101853.19;;;2.10;98.15
72612;BME280;60655;52.182;4.474;2024-01-07T00:34:39;101853.75;;;2.13;98.41
72612;BME280;60655;52.182;4.474;2024-01-07T00:36:40;101852.75;;;2.04;96.50
72612;BME280;60655;52.182;4.474;2024-01-07T00:38:40;101857.88;;;2.06;97.16
72612;BME280;60655;52.182;4.474;2024-01-07T00:40:41;101860.78;;;2.13;97.91
72612;BME280;60655;52.182;4.474;2024-01-07T00:42:43;101854.28;;;2.07;97.54
72612;BME280;60655;52.182;4.474;2024-01-07T00:44:43;101859.97;;;2.22;98.10
72612;BME280;60655;52.182;4.474;2024-01-07T00:46:44;101858.03;;;2.14;96.35
72612;BME280;60655;52.182;4.474;2024-01-07T00:48:45;101859.78;;;2.04;96.64
72612;BME280;60655;52.182;4.474;2024-01-07T00:50:46;101866.69;;;2.05;96.75
72612;BME280;60655;52.182;4.474;2024-01-07T00:52:47;101868.38;;;2.16;98.13
72612;BME280;60655;52.182;4.474;2024-01-07T00:54:48;101874.84;;;2.12;97.59
72612;BME280;60655;52.182;4.474;2024-01-07T00:56:49;101863.50;;;1.92;96.90
72612;BME280;60655;52.182;4.474;2024-01-07T00:58:51;101870.56;;;2.01;98.15
72612;BME280;60655;52.182;4.474;2024-01-07T01:00:52;101862.97;;;1.98;97.62
72612;BME280;60655;52.182;4.474;2024-01-07T01:02:54;101866.00;;;1.93;97.56
72612;BME280;60655;52.182;4.474;2024-01-07T01:04:55;101865.72;;;1.96;98.09
72612;BME280;60655;52.182;4.474;2024-01-07T01:06:56;101864.06;;;1.95;97.41
72612;BME280;60655;52.182;4.474;2024-01-07T01:08:57;101865.84;;;2.04;98.13
72612;BME280;60655;52.182;4.474;2024-01-07T01:10:58;101868.31;;;1.87;96.79
72612;BME280;60655;52.182;4.474;2024-01-07T01:12:59;101870.28;;;2.04;98.56
72612;BME280;60655;52.182;4.474;2024-01-07T01:15:00;101867.78;;;1.93;96.77
72612;BME280;60655;52.182;4.474;2024-01-07T01:17:00;101872.47;;;1.89;97.47
72612;BME280;60655;52.182;4.474;2024-01-07T01:19:01;101870.50;;;1.82;97.52
72612;BME280;60655;52.182;4.474;2024-01-07T01:21:02;101878.25;;;1.93;97.91
72612;BME280;60655;52.182;4.474;2024-01-07T01:23:03;101877.72;;;1.99;97.91
72612;BME280;60655;52.182;4.474;2024-01-07T01:25:05;101874.69;;;1.94;97.32
72612;BME280;60655;52.182;4.474;2024-01-07T01:27:05;101882.53;;;1.94;97.10
72612;BME280;60655;52.182;4.474;2024-01-07T01:29:06;101883.06;;;1.88;98.25
72612;BME280;60655;52.182;4.474;2024-01-07T01:31:07;101882.41;;;1.95;98.23
72612;BME280;60655;52.182;4.474;2024-01-07T01:33:08;101893.50;;;1.78;97.51
72612;BME280;60655;52.182;4.474;2024-01-07T01:35:09;101892.41;;;1.71;98.43
72612;BME280;60655;52.182;4.474;2024-01-07T01:37:10;101899.56;;;1.79;99.60
72612;BME280;60655;52.182;4.474;2024-01-07T01:39:11;101891.16;;;1.75;99.63
72612;BME280;60655;52.182;4.474;2024-01-07T01:41:12;101896.69;;;1.82;99.02
72612;BME280;60655;52.182;4.474;2024-01-07T01:43:22;101903.47;;;1.84;99.65
72612;BME280;60655;52.182;4.474;2024-01-07T01:45:23;101903.75;;;1.91;99.91
72612;BME280;60655;52.182;4.474;2024-01-07T01:47:24;101897.56;;;1.92;99.68
72612;BME280;60655;52.182;4.474;2024-01-07T01:49:25;101907.38;;;1.99;99.85
72612;BME280;60655;52.182;4.474;2024-01-07T01:51:26;101908.47;;;1.97;100.00
72612;BME280;60655;52.182;4.474;2024-01-07T01:53:27;101888.03;;;1.91;100.00
72612;BME280;60655;52.182;4.474;2024-01-07T01:55:28;101914.25;;;1.91;100.00
72612;BME280;60655;52.182;4.474;2024-01-07T01:57:33;101915.06;;;1.91;100.00
72612;BME280;60655;52.182;4.474;2024-01-07T01:59:36;101915.06;;;1.91;100.00
72612;BME280;60655;52.182;4.474;2024-01-07T02:01:36;101908.09;;;2.01;100.00
72612;BME280;60655;52.182;4.474;2024-01-07T02:03:38;101907.56;;;2.17;100.00
72612;BME280;60655;52.182;4.474;2024-01-07T02:05:39;101910.16;;;2.08;100.00
72612;BME280;60655;52.182;4.474;2024-01-07T02:07:40;101921.72;;;1.95;99.23
72612;BME280;60655;52.182;4.474;2024-01-07T02:09:40;101920.59;;;1.88;99.55
72612;BME280;60655;52.182;4.474;2024-01-07T02:11:41;101919.53;;;2.00;100.00
72612;BME280;60655;52.182;4.474;2024-01-07T02:13:43;101924.63;;;2.12;100.00
72612;BME280;60655;52.182;4.474;2024-01-07T02:15:44;101922.59;;;2.15;100.00
72612;BME280;60655;52.182;4.474;2024-01-07T02:17:45;101921.31;;;2.10;100.00
72612;BME280;60655;52.182;4.474;2024-01-07T02:19:46;101919.03;;;2.26;100.00
72612;BME280;60655;52.182;4.474;2024-01-07T02:21:47;101928.91;;;2.13;99.34
72612;BME280;60655;52.182;4.474;2024-01-07T02:23:48;101922.69;;;2.04;99.75
72612;BME280;60655;52.182;4.474;2024-01-07T02:25:48;101933.72;;;1.98;100.00
72612;BME280;60655;52.182;4.474;2024-01-07T02:27:49;101931.94;;;1.98;100.00
72612;BME280;60655;52.182;4.474;2024-01-07T02:29:50;101922.69;;;2.04;100.00
72612;BME280;60655;52.182;4.474;2024-01-07T02:31:51;101936.03;;;1.91;99.83
72612;BME280;60655;52.182;4.474;2024-01-07T02:33:52;101937.56;;;1.94;100.00
72612;BME280;60655;52.182;4.474;2024-01-07T02:35:53;101936.03;;;1.91;100.00
72612;BME280;60655;52.182;4.474;2024-01-07T02:37:54;101944.72;;;1.92;100.00
72612;BME280;60655;52.182;4.474;2024-01-07T02:39:55;101938.41;;;2.04;100.00
72612;BME280;60655;52.182;4.474;2024-01-07T02:41:56;101930.97;;;2.09;100.00
72612;BME280;60655;52.182;4.474;2024-01-07T02:43:56;101932.78;;;2.09;100.00
72612;BME280;60655;52.182;4.474;2024-01-07T02:45:57;101941.59;;;2.08;100.00
72612;BME280;60655;52.182;4.474;2024-01-07T02:47:58;101940.94;;;2.15;100.00
72612;BME280;60655;52.182;4.474;2024-01-07T02:49:59;101943.94;;;2.01;100.00
72612;BME280;60655;52.182;4.474;2024-01-07T02:52:00;101946.97;;;2.06;100.00
72612;BME280;60655;52.182;4.474;2024-01-07T02:54:01;101950.97;;;2.00;100.00
72612;BME280;60655;52.182;4.474;2024-01-07T02:56:03;101946.25;;;1.94;100.00
72612;BME280;60655;52.182;4.474;2024-01-07T02:58:04;101954.56;;;1.99;100.00
72612;BME280;60655;52.182;4.474;2024-01-07T03:00:05;101958.53;;;1.94;100.00
72612;BME280;60655;52.182;4.474;2024-01-07T03:02:07;101952.59;;;1.92;100.00
72612;BME280;60655;52.182;4.474;2024-01-07T03:04:10;101954.13;;;2.04;100.00
72612;BME280;60655;52.182;4.474;2024-01-07T03:06:11;101961.88;;;2.06;100.00
72612;BME280;60655;52.182;4.474;2024-01-07T03:08:12;101958.97;;;1.99;100.00
72612;BME280;60655;52.182;4.474;2024-01-07T03:10:13;101966.34;;;1.84;100.00
72612;BME280;60655;52.182;4.474;2024-01-07T03:12:15;101964.84;;;1.91;100.00
72612;BME280;60655;52.182;4.474;2024-01-07T03:14:16;101972.06;;;1.99;100.00
72612;BME280;60655;52.182;4.474;2024-01-07T03:16:21;101967.09;;;1.96;100.00
72612;BME280;60655;52.182;4.474;2024-01-07T03:18:22;101970.81;;;1.93;100.00
72612;BME280;60655;52.182;4.474;2024-01-07T03:20:23;101971.09;;;2.00;100.00
72612;BME280;60655;52.182;4.474;2024-01-07T03:22:24;101963.50;;;1.97;100.00
72612;BME280;60655;52.182;4.474;2024-01-07T03:24:25;101976.22;;;2.01;100.00
72612;BME280;60655;52.182;4.474;2024-01-07T03:26:29;101981.47;;;2.11;100.00
72612;BME280;60655;52.182;4.474;2024-01-07T03:28:31;101979.25;;;2.07;100.00
72612;BME280;60655;52.182;4.474;2024-01-07T03:30:31;101973.19;;;2.06;100.00
72612;BME280;60655;52.182;4.474;2024-01-07T03:32:32;101983.19;;;1.91;100.00
72612;BME280;60655;52.182;4.474;2024-01-07T03:34:33;101983.78;;;1.95;100.00
72612;BME280;60655;52.182;4.474;2024-01-07T03:36:34;101981.16;;;1.95;100.00
72612;BME280;60655;52.182;4.474;2024-01-07T03:38:36;101997.25;;;1.90;100.00
72612;BME280;60655;52.182;4.474;2024-01-07T03:40:37;101994.94;;;1.97;100.00
72612;BME280;60655;52.182;4.474;2024-01-07T03:42:38;101998.88;;;1.82;100.00
72612;BME280;60655;52.182;4.474;2024-01-07T03:44:39;101986.47;;;1.84;100.00
72612;BME280;60655;52.182;4.474;2024-01-07T03:46:40;102000.25;;;1.86;100.00
72612;BME280;60655;52.182;4.474;2024-01-07T03:48:41;102003.19;;;1.92;100.00
72612;BME280;60655;52.182;4.474;2024-01-07T03:50:42;101997.13;;;1.92;100.00
72612;BME280;60655;52.182;4.474;2024-01-07T03:52:43;102007.34;;;1.95;100.00
72612;BME280;60655;52.182;4.474;2024-01-07T03:54:44;102007.13;;;2.08;100.00
72612;BME280;60655;52.182;4.474;2024-01-07T03:56:45;102004.88;;;2.03;100.00
72612;BME280;60655;52.182;4.474;2024-01-07T03:58:46;102016.19;;;2.03;100.00
72612;BME280;60655;52.182;4.474;2024-01-07T04:00:47;102018.56;;;2.07;100.00
72612;BME280;60655;52.182;4.474;2024-01-07T04:02:48;102008.00;;;2.18;100.00
72612;BME280;60655;52.182;4.474;2024-01-07T04:04:49;102018.59;;;2.16;100.00
72612;BME280;60655;52.182;4.474;2024-01-07T04:06:50;102013.88;;;2.10;99.59
72612;BME280;60655;52.182;4.474;2024-01-07T04:08:51;102017.66;;;2.17;100.00
72612;BME280;60655;52.182;4.474;2024-01-07T04:10:52;102027.16;;;2.18;99.41
72612;BME280;60655;52.182;4.474;2024-01-07T04:12:53;102029.22;;;2.15;99.61
72612;BME280;60655;52.182;4.474;2024-01-07T04:14:54;102032.81;;;2.14;99.74
72612;BME280;60655;52.182;4.474;2024-01-07T04:16:55;102030.56;;;2.09;97.77
72612;BME280;60655;52.182;4.474;2024-01-07T04:18:55;102032.34;;;1.99;96.89
72612;BME280;60655;52.182;4.474;2024-01-07T04:20:56;102035.78;;;1.99;96.86
72612;BME280;60655;52.182;4.474;2024-01-07T04:22:57;102030.84;;;2.06;97.91
72612;BME280;60655;52.182;4.474;2024-01-07T04:24:58;102031.09;;;2.03;97.05
72612;BME280;60655;52.182;4.474;2024-01-07T04:26:59;102047.84;;;2.12;97.29
72612;BME280;60655;52.182;4.474;2024-01-07T04:29:00;102045.34;;;2.10;97.13
72612;BME280;60655;52.182;4.474;2024-01-07T04:31:01;102045.91;;;2.14;98.00
72612;BME280;60655;52.182;4.474;2024-01-07T04:33:03;102048.66;;;2.12;97.27
72612;BME280;60655;52.182;4.474;2024-01-07T04:35:04;102055.00;;;2.10;97.68
72612;BME280;60655;52.182;4.474;2024-01-07T04:37:06;102048.47;;;2.04;97.99
72612;BME280;60655;52.182;4.474;2024-01-07T04:39:07;102051.94;;;2.04;98.36
72612;BME280;60655;52.182;4.474;2024-01-07T04:41:10;102060.22;;;2.10;97.80
72612;BME280;60655;52.182;4.474;2024-01-07T04:43:11;102052.75;;;2.05;97.74
72612;BME280;60655;52.182;4.474;2024-01-07T04:45:12;102053.59;;;2.06;98.12
72612;BME280;60655;52.182;4.474;2024-01-07T04:47:42;102064.19;;;2.04;99.26
72612;BME280;60655;52.182;4.474;2024-01-07T04:49:43;102056.63;;;2.01;99.03
72612;BME280;60655;52.182;4.474;2024-01-07T04:51:44;102061.16;;;1.99;98.60
72612;BME280;60655;52.182;4.474;2024-01-07T04:53:45;102064.44;;;1.91;98.74
72612;BME280;60655;52.182;4.474;2024-01-07T04:55:46;102067.75;;;1.93;99.01
72612;BME280;60655;52.182;4.474;2024-01-07T04:57:46;102064.63;;;1.99;99.19
72612;BME280;60655;52.182;4.474;2024-01-07T04:59:49;102074.19;;;1.89;99.15
72612;BME280;60655;52.182;4.474;2024-01-07T05:01:50;102074.78;;;1.93;98.76
72612;BME280;60655;52.182;4.474;2024-01-07T05:03:51;102073.03;;;2.03;98.84
72612;BME280;60655;52.182;4.474;2024-01-07T05:05:52;102077.31;;;2.04;98.64
72612;BME280;60655;52.182;4.474;2024-01-07T05:07:53;102064.75;;;1.98;97.97
72612;BME280;60655;52.182;4.474;2024-01-07T05:09:54;102067.03;;;1.91;97.23
72612;BME280;60655;52.182;4.474;2024-01-07T05:11:55;102077.53;;;1.91;97.42
72612;BME280;60655;52.182;4.474;2024-01-07T05:13:56;102084.88;;;1.97;98.64
72612;BME280;60655;52.182;4.474;2024-01-07T05:15:57;102085.34;;;2.12;99.33
72612;BME280;60655;52.182;4.474;2024-01-07T05:17:58;102082.59;;;2.14;98.56
72612;BME280;60655;52.182;4.474;2024-01-07T05:19:59;102089.63;;;2.13;97.98
72612;BME280;60655;52.182;4.474;2024-01-07T05:22:00;102092.00;;;2.16;98.16
72612;BME280;60655;52.182;4.474;2024-01-07T05:24:01;102099.06;;;1.95;96.83
72612;BME280;60655;52.182;4.474;2024-01-07T05:26:02;102095.78;;;2.02;97.96
72612;BME280;60655;52.182;4.474;2024-01-07T05:28:04;102098.28;;;2.04;98.36
72612;BME280;60655;52.182;4.474;2024-01-07T05:30:05;102096.78;;;2.01;98.06
72612;BME280;60655;52.182;4.474;2024-01-07T05:32:08;102096.91;;;2.00;98.18
72612;BME280;60655;52.182;4.474;2024-01-07T05:34:09;102114.47;;;1.88;97.93
72612;BME280;60655;52.182;4.474;2024-01-07T05:36:11;102108.19;;;1.80;97.53
72612;BME280;60655;52.182;4.474;2024-01-07T05:38:12;102105.53;;;1.91;98.43
72612;BME280;60655;52.182;4.474;2024-01-07T05:40:13;102112.69;;;1.89;97.56
72612;BME280;60655;52.182;4.474;2024-01-07T05:42:14;102115.94;;;1.81;98.18
72612;BME280;60655;52.182;4.474;2024-01-07T05:44:14;102113.75;;;1.86;98.63
72612;BME280;60655;52.182;4.474;2024-01-07T05:46:15;102117.03;;;1.99;99.31
72612;BME280;60655;52.182;4.474;2024-01-07T05:48:16;102128.88;;;2.03;98.14
72612;BME280;60655;52.182;4.474;2024-01-07T05:50:17;102124.22;;;2.07;98.76
72612;BME280;60655;52.182;4.474;2024-01-07T05:52:19;102131.31;;;2.16;99.38
72612;BME280;60655;52.182;4.474;2024-01-07T05:54:20;102137.41;;;2.17;99.46
72612;BME280;60655;52.182;4.474;2024-01-07T05:56:23;102134.84;;;2.06;97.45
72612;BME280;60655;52.182;4.474;2024-01-07T05:58:24;102143.84;;;2.13;98.14
72612;BME280;60655;52.182;4.474;2024-01-07T06:00:25;102141.69;;;2.18;98.07
72612;BME280;60655;52.182;4.474;2024-01-07T06:02:26;102144.69;;;2.13;98.63
72612;BME280;60655;52.182;4.474;2024-01-07T06:04:27;102140.53;;;2.11;98.51
72612;BME280;60655;52.182;4.474;2024-01-07T06:06:28;102150.44;;;2.07;98.85
72612;BME280;60655;52.182;4.474;2024-01-07T06:08:29;102147.69;;;2.09;98.84
72612;BME280;60655;52.182;4.474;2024-01-07T06:10:29;102153.72;;;1.99;98.73
72612;BME280;60655;52.182;4.474;2024-01-07T06:12:30;102159.38;;;2.04;99.51
72612;BME280;60655;52.182;4.474;2024-01-07T06:14:31;102156.34;;;1.99;99.30
72612;BME280;60655;52.182;4.474;2024-01-07T06:16:32;102159.66;;;2.01;99.92
72612;BME280;60655;52.182;4.474;2024-01-07T06:18:33;102163.38;;;1.99;99.38
72612;BME280;60655;52.182;4.474;2024-01-07T06:20:34;102167.19;;;1.95;99.72
72612;BME280;60655;52.182;4.474;2024-01-07T06:22:35;102171.03;;;1.91;99.90
72612;BME280;60655;52.182;4.474;2024-01-07T06:24:36;102174.41;;;2.02;100.00
72612;BME280;60655;52.182;4.474;2024-01-07T06:26:37;102174.56;;;2.01;100.00
72612;BME280;60655;52.182;4.474;2024-01-07T06:28:38;102178.00;;;2.01;100.00
72612;BME280;60655;52.182;4.474;2024-01-07T06:30:38;102175.06;;;2.16;100.00
72612;BME280;60655;52.182;4.474;2024-01-07T06:32:39;102175.69;;;2.08;100.00
72612;BME280;60655;52.182;4.474;2024-01-07T06:34:40;102172.22;;;2.08;100.00
72612;BME280;60655;52.182;4.474;2024-01-07T06:36:42;102175.94;;;2.05;99.95
72612;BME280;60655;52.182;4.474;2024-01-07T06:38:42;102179.63;;;2.02;100.00
72612;BME280;60655;52.182;4.474;2024-01-07T06:40:43;102186.28;;;2.07;100.00
72612;BME280;60655;52.182;4.474;2024-01-07T06:42:44;102194.41;;;2.03;100.00
72612;BME280;60655;52.182;4.474;2024-01-07T06:44:45;102200.09;;;1.88;100.00
72612;BME280;60655;52.182;4.474;2024-01-07T06:46:46;102200.09;;;1.88;100.00
72612;BME280;60655;52.182;4.474;2024-01-07T06:48:47;102204.63;;;1.86;100.00
72612;BME280;60655;52.182;4.474;2024-01-07T06:50:48;102206.66;;;1.82;100.00
72612;BME280;60655;52.182;4.474;2024-01-07T06:52:49;102215.28;;;1.73;100.00
72612;BME280;60655;52.182;4.474;2024-01-07T06:54:50;102215.72;;;1.78;100.00
72612;BME280;60655;52.182;4.474;2024-01-07T06:56:51;102226.78;;;1.82;100.00
72612;BME280;60655;52.182;4.474;2024-01-07T06:58:52;102227.16;;;1.77;100.00
72612;BME280;60655;52.182;4.474;2024-01-07T07:00:53;102217.50;;;1.78;100.00
72612;BME280;60655;52.182;4.474;2024-01-07T07:02:54;102236.53;;;1.91;100.00
72612;BME280;60655;52.182;4.474;2024-01-07T07:04:55;102235.09;;;1.98;100.00
72612;BME280;60655;52.182;4.474;2024-01-07T07:06:55;102227.25;;;1.87;100.00
72612;BME280;60655;52.182;4.474;2024-01-07T07:08:58;102235.91;;;1.98;100.00
72612;BME280;60655;52.182;4.474;2024-01-07T07:11:00;102243.66;;;2.00;99.72
72612;BME280;60655;52.182;4.474;2024-01-07T07:13:01;102245.94;;;1.93;99.07
72612;BME280;60655;52.182;4.474;2024-01-07T07:15:02;102246.66;;;1.95;99.55
72612;BME280;60655;52.182;4.474;2024-01-07T07:17:03;102249.72;;;2.00;99.39
72612;BME280;60655;52.182;4.474;2024-01-07T07:19:04;102259.69;;;2.07;98.96
72612;BME280;60655;52.182;4.474;2024-01-07T07:21:05;102258.59;;;2.09;98.99
72612;BME280;60655;52.182;4.474;2024-01-07T07:23:06;102267.41;;;2.08;98.96
72612;BME280;60655;52.182;4.474;2024-01-07T07:25:07;102265.00;;;1.95;97.18
72612;BME280;60655;52.182;4.474;2024-01-07T07:27:08;102256.78;;;1.89;97.24
72612;BME280;60655;52.182;4.474;2024-01-07T07:29:09;102272.28;;;1.81;96.88
72612;BME280;60655;52.182;4.474;2024-01-07T07:31:11;102283.13;;;1.76;97.42
72612;BME280;60655;52.182;4.474;2024-01-07T07:33:12;102272.75;;;1.86;97.98
72612;BME280;60655;52.182;4.474;2024-01-07T07:35:14;102278.00;;;1.86;97.36
72612;BME280;60655;52.182;4.474;2024-01-07T07:37:15;102293.34;;;1.90;98.17
72612;BME280;60655;52.182;4.474;2024-01-07T07:39:16;102278.94;;;1.85;96.65
72612;BME280;60655;52.182;4.474;2024-01-07T07:41:17;102287.16;;;1.80;96.88
72612;BME280;60655;52.182;4.474;2024-01-07T07:43:19;102292.16;;;1.83;96.65
72612;BME280;60655;52.182;4.474;2024-01-07T07:45:21;102289.66;;;1.82;96.91
72612;BME280;60655;52.182;4.474;2024-01-07T07:47:22;102294.84;;;1.72;96.96
72612;BME280;60655;52.182;4.474;2024-01-07T07:49:23;102299.06;;;1.84;97.16
72612;BME280;60655;52.182;4.474;2024-01-07T07:51:23;102302.19;;;1.78;97.30
72612;BME280;60655;52.182;4.474;2024-01-07T07:53:24;102301.09;;;1.81;97.24
72612;BME280;60655;52.182;4.474;2024-01-07T07:55:25;102307.53;;;1.77;96.40
72612;BME280;60655;52.182;4.474;2024-01-07T07:57:27;102310.88;;;1.79;97.35
72612;BME280;60655;52.182;4.474;2024-01-07T07:59:29;102303.81;;;1.90;96.88
72612;BME280;60655;52.182;4.474;2024-01-07T08:01:30;102317.06;;;1.89;97.00
72612;BME280;60655;52.182;4.474;2024-01-07T08:03:31;102322.53;;;1.86;96.62
72612;BME280;60655;52.182;4.474;2024-01-07T08:05:32;102324.44;;;1.84;96.49
72612;BME280;60655;52.182;4.474;2024-01-07T08:07:33;102326.47;;;1.91;96.64
72612;BME280;60655;52.182;4.474;2024-01-07T08:09:34;102322.19;;;1.79;95.45
72612;BME280;60655;52.182;4.474;2024-01-07T08:11:37;102334.56;;;1.77;96.08
72612;BME280;60655;52.182;4.474;2024-01-07T08:13:38;102330.88;;;1.80;96.32
72612;BME280;60655;52.182;4.474;2024-01-07T08:15:39;102340.41;;;1.81;96.36
72612;BME280;60655;52.182;4.474;2024-01-07T08:17:40;102338.97;;;1.88;97.34
72612;BME280;60655;52.182;4.474;2024-01-07T08:19:41;102341.47;;;1.78;95.55
72612;BME280;60655;52.182;4.474;2024-01-07T08:21:42;102345.03;;;1.77;95.66
72612;BME280;60655;52.182;4.474;2024-01-07T08:23:43;102351.00;;;1.79;96.27
72612;BME280;60655;52.182;4.474;2024-01-07T08:25:44;102353.84;;;1.87;96.52
72612;BME280;60655;52.182;4.474;2024-01-07T08:27:46;102362.66;;;1.75;94.45
72612;BME280;60655;52.182;4.474;2024-01-07T08:29:47;102356.97;;;1.81;95.55
72612;BME280;60655;52.182;4.474;2024-01-07T08:31:48;102359.56;;;1.81;96.03
72612;BME280;60655;52.182;4.474;2024-01-07T08:33:49;102357.44;;;1.86;96.38
72612;BME280;60655;52.182;4.474;2024-01-07T08:35:50;102360.41;;;1.82;95.17
72612;BME280;60655;52.182;4.474;2024-01-07T08:37:50;102373.03;;;1.77;95.25
72612;BME280;60655;52.182;4.474;2024-01-07T08:39:51;102372.19;;;1.87;95.33
72612;BME280;60655;52.182;4.474;2024-01-07T08:41:52;102373.88;;;1.88;95.41
72612;BME280;60655;52.182;4.474;2024-01-07T08:43:54;102376.84;;;1.95;95.88
72612;BME280;60655;52.182;4.474;2024-01-07T08:45:55;102376.00;;;1.83;95.17
72612;BME280;60655;52.182;4.474;2024-01-07T08:47:56;102389.34;;;1.91;95.35
72612;BME280;60655;52.182;4.474;2024-01-07T08:49:57;102393.63;;;1.81;94.46
72612;BME280;60655;52.182;4.474;2024-01-07T08:51:58;102386.59;;;1.82;94.22
72612;BME280;60655;52.182;4.474;2024-01-07T08:53:59;102392.81;;;1.81;94.28
72612;BME280;60655;52.182;4.474;2024-01-07T08:56:00;102386.84;;;1.79;94.42
72612;BME280;60655;52.182;4.474;2024-01-07T08:58:01;102389.34;;;1.80;93.96
72612;BME280;60655;52.182;4.474;2024-01-07T09:00:02;102393.28;;;1.75;93.71
72612;BME280;60655;52.182;4.474;2024-01-07T09:02:03;102393.53;;;1.72;93.56
72612;BME280;60655;52.182;4.474;2024-01-07T09:04:04;102392.72;;;1.71;93.22
72612;BME280;60655;52.182;4.474;2024-01-07T09:06:05;102401.25;;;1.84;93.38
72612;BME280;60655;52.182;4.474;2024-01-07T09:08:06;102401.25;;;1.84;92.51
72612;BME280;60655;52.182;4.474;2024-01-07T09:10:07;102404.47;;;1.77;91.74
72612;BME280;60655;52.182;4.474;2024-01-07T09:12:11;102404.47;;;1.77;91.76
72612;BME280;60655;52.182;4.474;2024-01-07T09:14:12;102400.09;;;1.66;91.35
72612;BME280;60655;52.182;4.474;2024-01-07T09:16:15;102401.75;;;1.67;92.06
72612;BME280;60655;52.182;4.474;2024-01-07T09:18:16;102403.31;;;1.69;91.95
72612;BME280;60655;52.182;4.474;2024-01-07T09:20:17;102407.81;;;1.79;92.84
72612;BME280;60655;52.182;4.474;2024-01-07T09:22:18;102407.81;;;1.79;92.39
72612;BME280;60655;52.182;4.474;2024-01-07T09:24:18;102411.63;;;1.86;92.55
72612;BME280;60655;52.182;4.474;2024-01-07T09:26:19;102421.25;;;1.85;92.15
72612;BME280;60655;52.182;4.474;2024-01-07T09:28:21;102420.06;;;1.89;92.16
72612;BME280;60655;52.182;4.474;2024-01-07T09:30:22;102429.13;;;1.85;91.54
72612;BME280;60655;52.182;4.474;2024-01-07T09:32:23;102430.06;;;1.84;90.96
72612;BME280;60655;52.182;4.474;2024-01-07T09:34:24;102436.84;;;1.76;90.88
72612;BME280;60655;52.182;4.474;2024-01-07T09:36:25;102439.47;;;1.76;90.70
72612;BME280;60655;52.182;4.474;2024-01-07T09:38:26;102461.41;;;1.86;91.98
72612;BME280;60655;52.182;4.474;2024-01-07T09:40:27;102455.94;;;2.00;92.99
72612;BME280;60655;52.182;4.474;2024-01-07T09:42:28;102458.91;;;1.95;91.10
72612;BME280;60655;52.182;4.474;2024-01-07T09:44:29;102463.31;;;1.95;91.00
72612;BME280;60655;52.182;4.474;2024-01-07T09:46:31;102461.28;;;1.87;90.42
72612;BME280;60655;52.182;4.474;2024-01-07T09:48:32;102462.97;;;1.88;90.26
72612;BME280;60655;52.182;4.474;2024-01-07T09:50:33;102468.31;;;1.87;90.45
72612;BME280;60655;52.182;4.474;2024-01-07T09:52:35;102466.66;;;1.86;90.65
72612;BME280;60655;52.182;4.474;2024-01-07T09:54:37;102475.09;;;1.89;90.42
72612;BME280;60655;52.182;4.474;2024-01-07T09:56:55;102471.41;;;1.81;89.73
72612;BME280;60655;52.182;4.474;2024-01-07T09:59:00;102479.50;;;1.89;90.40
72612;BME280;60655;52.182;4.474;2024-01-07T10:01:01;102477.50;;;1.92;89.91
72612;BME280;60655;52.182;4.474;2024-01-07T10:03:05;102487.59;;;1.86;89.63
72612;BME280;60655;52.182;4.474;2024-01-07T10:05:06;102477.47;;;1.81;89.31
72612;BME280;60655;52.182;4.474;2024-01-07T10:07:07;102479.38;;;1.79;89.75
72612;BME280;60655;52.182;4.474;2024-01-07T10:09:08;102486.31;;;1.91;90.07
72612;BME280;60655;52.182;4.474;2024-01-07T10:11:09;102483.56;;;1.93;89.54
72612;BME280;60655;52.182;4.474;2024-01-07T10:13:10;102486.31;;;1.91;88.48
72612;BME280;60655;52.182;4.474;2024-01-07T10:15:11;102478.56;;;1.90;89.04
72612;BME280;60655;52.182;4.474;2024-01-07T10:17:16;102488.81;;;1.93;88.46
72612;BME280;60655;52.182;4.474;2024-01-07T10:19:21;102491.66;;;1.90;88.86
72612;BME280;60655;52.182;4.474;2024-01-07T10:21:22;102500.84;;;1.95;89.08
72612;BME280;60655;52.182;4.474;2024-01-07T10:23:23;102498.22;;;1.95;89.02
72612;BME280;60655;52.182;4.474;2024-01-07T10:25:25;102493.09;;;1.94;88.26
72612;BME280;60655;52.182;4.474;2024-01-07T10:27:26;102497.97;;;1.98;88.63
72612;BME280;60655;52.182;4.474;2024-01-07T10:29:27;102505.09;;;2.08;89.09
72612;BME280;60655;52.182;4.474;2024-01-07T10:31:28;102501.06;;;2.03;88.34
72612;BME280;60655;52.182;4.474;2024-01-07T10:33:33;102505.34;;;2.04;89.16
72612;BME280;60655;52.182;4.474;2024-01-07T10:35:35;102507.84;;;2.17;89.93
72612;BME280;60655;52.182;4.474;2024-01-07T10:37:36;102498.91;;;2.20;88.47
72612;BME280;60655;52.182;4.474;2024-01-07T10:39:37;102518.94;;;2.21;87.36